createdAt,value
2022-12-24T00:01:35.107Z,68.18
2022-12-24T00:06:45.033Z,68.03
2022-12-24T00:11:54.033Z,67.90
2022-12-24T00:17:02.088Z,67.81
2022-12-24T00:22:10.932Z,67.75
2022-12-24T00:27:19.269Z,67.70
2022-12-24T00:32:28.188Z,67.68
2022-12-24T00:37:36.307Z,67.69
2022-12-24T00:42:44.606Z,67.75
2022-12-24T00:47:52.814Z,67.83
2022-12-24T00:53:01.043Z,67.84
2022-12-24T00:58:09.243Z,67.79
2022-12-24T01:03:17.428Z,67.72
2022-12-24T01:08:25.942Z,67.61
2022-12-24T01:13:34.352Z,67.59
2022-12-24T01:18:42.481Z,67.56
2022-12-24T01:23:50.721Z,67.45
2022-12-24T01:28:59.688Z,67.36
2022-12-24T01:34:07.925Z,67.28
2022-12-24T01:39:16.273Z,67.27
2022-12-24T01:44:35.682Z,67.24
2022-12-24T01:49:53.367Z,67.20
2022-12-24T01:55:05.289Z,67.20
2022-12-24T02:00:17.468Z,67.23
2022-12-24T02:05:30.783Z,67.21
2022-12-24T02:10:39.514Z,67.12
2022-12-24T02:16:02.097Z,66.96
2022-12-24T02:21:40.083Z,66.80
2022-12-24T02:27:19.098Z,66.67
2022-12-24T02:32:30.819Z,66.44
2022-12-24T02:37:43.849Z,66.16
2022-12-24T02:42:57.642Z,65.88
2022-12-24T02:48:07.634Z,65.77
2022-12-24T02:53:16.216Z,65.74
2022-12-24T02:58:38.311Z,65.70
2022-12-24T03:04:04.877Z,65.67
2022-12-24T03:09:22.905Z,65.71
2022-12-24T03:14:34.520Z,65.83
2022-12-24T03:19:43.149Z,65.80
2022-12-24T03:24:51.757Z,65.76
2022-12-24T03:30:00.197Z,65.80
2022-12-24T03:35:10.451Z,65.84
2022-12-24T03:40:19.404Z,65.79
2022-12-24T03:45:27.799Z,65.65
2022-12-24T03:50:36.271Z,65.58
2022-12-24T03:55:44.454Z,65.50
2022-12-24T04:00:54.288Z,65.40
2022-12-24T04:06:10.695Z,65.26
2022-12-24T04:11:20.039Z,65.20
2022-12-24T04:16:29.379Z,65.13
2022-12-24T04:21:37.954Z,65.04
2022-12-24T04:26:46.345Z,65.05
2022-12-24T04:31:54.618Z,65.03
2022-12-24T04:37:03.208Z,64.93
2022-12-24T04:42:11.464Z,64.84
2022-12-24T04:47:19.909Z,64.82
2022-12-24T04:52:27.935Z,64.79
2022-12-24T04:57:38.389Z,64.71
2022-12-24T05:02:46.895Z,64.56
2022-12-24T05:07:55.228Z,64.40
2022-12-24T05:13:03.509Z,64.27
2022-12-24T05:18:12.099Z,64.15
2022-12-24T05:23:40.992Z,64.04
2022-12-24T05:28:49.662Z,64.00
2022-12-24T05:33:57.829Z,64.02
2022-12-24T05:39:11.432Z,64.23
2022-12-24T05:44:21.992Z,64.30
2022-12-24T05:49:31.260Z,64.36
2022-12-24T05:54:39.398Z,64.46
2022-12-24T05:59:49.235Z,64.50
2022-12-24T06:04:57.348Z,64.77
2022-12-24T06:10:05.695Z,64.54
2022-12-24T06:15:20.336Z,64.17
2022-12-24T06:20:33.447Z,63.85
2022-12-24T06:25:41.689Z,63.57
2022-12-24T06:30:57.117Z,63.37
2022-12-24T06:36:17.748Z,63.20
2022-12-24T06:41:26.643Z,63.04
2022-12-24T06:46:34.805Z,62.83
2022-12-24T06:51:43.445Z,62.69
2022-12-24T06:56:51.919Z,62.74
2022-12-24T07:02:00.196Z,62.78
2022-12-24T07:07:08.485Z,62.84
2022-12-24T07:12:16.586Z,62.84
2022-12-24T07:17:25.000Z,62.76
2022-12-24T07:22:33.970Z,62.58
2022-12-24T07:27:42.711Z,62.37
2022-12-24T07:32:50.980Z,62.25
2022-12-24T07:37:58.444Z,62.15
2022-12-24T07:43:06.654Z,62.20
2022-12-24T07:48:14.339Z,62.29
2022-12-24T07:53:23.395Z,62.37
2022-12-24T07:58:31.929Z,62.52
2022-12-24T08:03:40.784Z,62.74
2022-12-24T08:08:49.529Z,63.05
2022-12-24T08:13:57.824Z,63.40
2022-12-24T08:19:06.964Z,63.78
2022-12-24T08:24:15.514Z,64.17
2022-12-24T08:29:23.869Z,64.57
2022-12-24T08:34:32.215Z,64.92
2022-12-24T08:39:40.529Z,65.22
2022-12-24T08:44:49.236Z,65.49
2022-12-24T08:49:57.620Z,65.72
2022-12-24T08:55:07.017Z,65.97
2022-12-24T09:00:17.408Z,66.19
2022-12-24T09:05:26.361Z,66.46
2022-12-24T09:10:34.687Z,67.09
2022-12-24T09:15:43.275Z,67.73
2022-12-24T09:20:56.884Z,68.18
2022-12-24T09:26:09.247Z,68.41
2022-12-24T09:31:19.571Z,68.53
2022-12-24T09:36:27.878Z,68.58
2022-12-24T09:41:50.032Z,68.58
2022-12-24T09:47:08.163Z,68.50
2022-12-24T09:52:28.224Z,68.37
2022-12-24T09:57:41.217Z,68.24
2022-12-24T10:02:50.633Z,68.07
2022-12-24T10:08:12.622Z,67.93
2022-12-24T10:13:27.976Z,67.86
2022-12-24T10:18:49.314Z,67.74
2022-12-24T10:24:07.942Z,67.58
2022-12-24T10:29:20.567Z,67.48
2022-12-24T10:34:28.978Z,67.40
2022-12-24T10:39:37.618Z,67.46
2022-12-24T10:44:50.829Z,67.46
2022-12-24T10:50:06.922Z,67.43
2022-12-24T10:55:28.022Z,67.40
2022-12-24T11:00:37.675Z,67.34
2022-12-24T11:05:46.924Z,67.24
2022-12-24T11:11:01.401Z,67.19
2022-12-24T11:16:17.590Z,67.18
2022-12-24T11:21:32.097Z,67.14
2022-12-24T11:26:41.240Z,67.17
2022-12-24T11:31:53.027Z,67.20
2022-12-24T11:37:17.232Z,67.23
2022-12-24T11:42:33.374Z,67.24
2022-12-24T11:47:42.871Z,67.22
2022-12-24T11:52:57.352Z,67.24
2022-12-24T11:58:16.238Z,67.21
2022-12-24T12:03:35.140Z,67.15
2022-12-24T12:08:44.626Z,67.08
2022-12-24T12:13:52.957Z,67.07
2022-12-24T12:19:10.007Z,66.98
2022-12-24T12:24:32.120Z,66.86
2022-12-24T12:29:47.584Z,66.68
2022-12-24T12:35:06.378Z,66.48
2022-12-24T12:40:19.625Z,66.38
2022-12-24T12:45:40.634Z,66.34
2022-12-24T12:50:57.225Z,66.37
2022-12-24T12:56:17.928Z,66.42
2022-12-24T13:01:33.087Z,66.52
2022-12-24T13:07:22.296Z,66.53
2022-12-24T13:12:57.165Z,66.47
2022-12-24T13:18:33.904Z,66.39
2022-12-24T13:23:43.254Z,66.36
2022-12-24T13:28:52.306Z,66.38
2022-12-24T13:34:03.395Z,66.39
2022-12-24T13:39:22.491Z,66.40
2022-12-24T13:44:36.616Z,66.42
2022-12-24T13:49:48.612Z,66.47
2022-12-24T13:55:25.633Z,66.52
2022-12-24T14:00:45.020Z,66.55
2022-12-24T14:05:57.522Z,66.68
2022-12-24T14:11:12.564Z,66.55
2022-12-24T14:16:22.414Z,66.72
2022-12-24T14:21:34.887Z,67.10
2022-12-24T14:26:55.237Z,67.41
2022-12-24T14:32:05.562Z,67.68
2022-12-24T14:37:16.174Z,67.90
2022-12-24T14:42:38.332Z,68.10
2022-12-24T14:47:56.852Z,68.16
2022-12-24T14:53:19.316Z,68.20
2022-12-24T14:58:32.235Z,68.26
2022-12-24T15:03:40.783Z,68.37
2022-12-24T15:08:52.316Z,68.42
2022-12-24T15:14:02.472Z,68.46
2022-12-24T15:19:22.114Z,68.56
2022-12-24T15:24:32.626Z,68.58
2022-12-24T15:29:45.243Z,68.64
2022-12-24T15:34:54.805Z,68.66
2022-12-24T15:40:10.291Z,68.65
2022-12-24T15:45:27.148Z,68.68
2022-12-24T15:50:39.589Z,68.72
2022-12-24T15:56:02.193Z,68.76
2022-12-24T16:01:30.370Z,68.76
2022-12-24T16:06:58.712Z,68.81
2022-12-24T16:12:14.535Z,68.82
2022-12-24T16:17:26.684Z,68.85
2022-12-24T16:22:35.594Z,68.85
2022-12-24T16:27:43.747Z,68.88
2022-12-24T16:32:52.712Z,68.86
2022-12-24T16:38:01.088Z,68.89
2022-12-24T16:43:30.386Z,68.85
2022-12-24T16:48:41.060Z,68.89
2022-12-24T16:53:50.374Z,68.90
2022-12-24T16:58:59.152Z,68.84
2022-12-24T17:04:08.115Z,68.76
2022-12-24T17:09:16.901Z,68.71
2022-12-24T17:14:25.538Z,68.65
2022-12-24T17:19:34.036Z,68.57
2022-12-24T17:24:42.481Z,68.51
2022-12-24T17:29:51.021Z,68.50
2022-12-24T17:35:04.307Z,68.45
2022-12-24T17:40:15.077Z,68.41
2022-12-24T17:45:23.592Z,68.38
2022-12-24T17:50:33.124Z,68.23
2022-12-24T17:55:46.261Z,68.10
2022-12-24T18:00:55.836Z,68.07
2022-12-24T18:06:09.811Z,68.08
2022-12-24T18:11:20.653Z,68.06
2022-12-24T18:16:32.316Z,68.10
2022-12-24T18:21:41.317Z,68.10
2022-12-24T18:26:50.256Z,68.11
2022-12-24T18:31:58.950Z,68.16
2022-12-24T18:37:07.654Z,68.13
2022-12-24T18:42:16.750Z,68.12
2022-12-24T18:47:26.370Z,68.09
2022-12-24T18:52:36.397Z,68.11
2022-12-24T18:57:44.966Z,68.07
2022-12-24T19:02:54.071Z,68.05
2022-12-24T19:08:22.304Z,68.04
2022-12-24T19:13:32.338Z,68.05
2022-12-24T19:18:41.150Z,68.06
2022-12-24T19:23:51.202Z,68.05
2022-12-24T19:29:00.235Z,68.04
2022-12-24T19:34:09.053Z,68.05
2022-12-24T19:39:18.657Z,68.11
2022-12-24T19:44:27.852Z,68.14
2022-12-24T19:49:36.666Z,68.18
2022-12-24T19:54:46.053Z,68.21
2022-12-24T19:59:54.639Z,68.23
2022-12-24T20:05:03.594Z,68.21
2022-12-24T20:10:13.718Z,68.11
2022-12-24T20:15:22.442Z,68.01
2022-12-24T20:20:31.372Z,67.92
2022-12-24T20:25:40.475Z,67.83
2022-12-24T20:30:49.792Z,67.73
2022-12-24T20:36:03.910Z,67.67
2022-12-24T20:41:14.714Z,67.64
2022-12-24T20:46:25.690Z,67.63
2022-12-24T20:51:34.844Z,67.62
2022-12-24T20:56:44.198Z,67.55
2022-12-24T21:01:53.299Z,67.49
2022-12-24T21:07:02.635Z,67.45
2022-12-24T21:12:32.121Z,67.47
2022-12-24T21:17:40.945Z,67.50
2022-12-24T21:22:50.778Z,67.48
2022-12-24T21:28:02.250Z,67.52
2022-12-24T21:33:11.184Z,67.55
2022-12-24T21:38:20.002Z,67.57
2022-12-24T21:43:28.742Z,67.62
2022-12-24T21:48:56.310Z,67.65
2022-12-24T21:54:23.448Z,67.65
2022-12-24T21:59:33.231Z,67.65
2022-12-24T22:04:42.408Z,67.67
2022-12-24T22:10:09.543Z,67.66
2022-12-24T22:15:18.177Z,67.63
2022-12-24T22:20:26.818Z,67.65
2022-12-24T22:25:35.160Z,67.66
2022-12-24T22:30:44.523Z,67.72
2022-12-24T22:35:52.891Z,67.78
2022-12-24T22:41:02.351Z,67.84
2022-12-24T22:46:14.450Z,67.85
2022-12-24T22:51:24.838Z,67.89
2022-12-24T22:56:38.775Z,67.93
2022-12-24T23:01:53.320Z,67.98
2022-12-24T23:07:02.251Z,68.01
2022-12-24T23:12:11.308Z,68.04
2022-12-24T23:17:20.239Z,68.06
2022-12-24T23:22:28.520Z,68.07
2022-12-24T23:27:36.888Z,68.12
2022-12-24T23:32:46.013Z,68.17
2022-12-24T23:37:54.620Z,68.18
2022-12-24T23:43:02.776Z,68.20
2022-12-24T23:48:11.453Z,68.23
2022-12-24T23:53:21.375Z,68.26
2022-12-24T23:58:29.854Z,68.28
